sensor_id;sensor_type;location;lat;lon;timestamp;temperature;humidity
27492;DHT22;14927;51.210;6.838;2023-06-10T00:02:15;26.50;41.60
27492;DHT22;14927;51.210;6.838;2023-06-10T00:05:01;26.50;41.80
27492;DHT22;14927;51.210;6.838;2023-06-10T00:07:45;26.40;41.80
27492;DHT22;14927;51.210;6.838;2023-06-10T00:10:30;26.40;41.90
27492;DHT22;14927;51.210;6.838;2023-06-10T00:13:15;26.30;41.90
27492;DHT22;14927;51.210;6.838;2023-06-10T00:16:01;26.30;42.10
27492;DHT22;14927;51.210;6.838;2023-06-10T00:18:45;26.20;42.20
27492;DHT22;14927;51.210;6.838;2023-06-10T00:21:32;26.20;42.30
27492;DHT22;14927;51.210;6.838;2023-06-10T00:24:24;26.10;42.20
27492;DHT22;14927;51.210;6.838;2023-06-10T00:27:09;26.10;42.30
27492;DHT22;14927;51.210;6.838;2023-06-10T00:29:53;26.10;42.50
27492;DHT22;14927;51.210;6.838;2023-06-10T00:32:38;26.10;42.50
27492;DHT22;14927;51.210;6.838;2023-06-10T00:35:23;26.00;42.60
27492;DHT22;14927;51.210;6.838;2023-06-10T00:38:08;26.00;42.60
27492;DHT22;14927;51.210;6.838;2023-06-10T00:40:52;25.90;42.60
27492;DHT22;14927;51.210;6.838;2023-06-10T00:43:37;25.90;42.70
27492;DHT22;14927;51.210;6.838;2023-06-10T00:46:23;25.80;42.80
27492;DHT22;14927;51.210;6.838;2023-06-10T00:49:09;25.80;43.00
27492;DHT22;14927;51.210;6.838;2023-06-10T00:51:55;25.80;43.00
27492;DHT22;14927;51.210;6.838;2023-06-10T00:54:39;25.70;43.10
27492;DHT22;14927;51.210;6.838;2023-06-10T00:57:24;25.70;43.20
27492;DHT22;14927;51.210;6.838;2023-06-10T01:00:10;25.70;43.40
27492;DHT22;14927;51.210;6.838;2023-06-10T01:02:56;25.60;43.30
27492;DHT22;14927;51.210;6.838;2023-06-10T01:05:41;25.60;43.40
27492;DHT22;14927;51.210;6.838;2023-06-10T01:08:41;25.50;43.40
27492;DHT22;14927;51.210;6.838;2023-06-10T01:12:03;25.50;43.50
27492;DHT22;14927;51.210;6.838;2023-06-10T01:14:53;25.50;43.90
27492;DHT22;14927;51.210;6.838;2023-06-10T01:17:58;25.50;43.60
27492;DHT22;14927;51.210;6.838;2023-06-10T01:20:46;25.50;44.10
27492;DHT22;14927;51.210;6.838;2023-06-10T01:23:32;25.40;43.90
27492;DHT22;14927;51.210;6.838;2023-06-10T01:26:17;25.40;43.90
27492;DHT22;14927;51.210;6.838;2023-06-10T01:29:14;25.30;43.90
27492;DHT22;14927;51.210;6.838;2023-06-10T01:32:14;25.30;44.30
27492;DHT22;14927;51.210;6.838;2023-06-10T01:35:02;25.20;44.20
27492;DHT22;14927;51.210;6.838;2023-06-10T01:37:48;25.20;44.10
27492;DHT22;14927;51.210;6.838;2023-06-10T01:40:34;25.20;44.40
27492;DHT22;14927;51.210;6.838;2023-06-10T01:43:20;25.20;44.40
27492;DHT22;14927;51.210;6.838;2023-06-10T01:46:06;25.10;44.50
27492;DHT22;14927;51.210;6.838;2023-06-10T01:48:50;25.10;44.60
27492;DHT22;14927;51.210;6.838;2023-06-10T01:51:35;25.10;44.70
27492;DHT22;14927;51.210;6.838;2023-06-10T01:54:20;25.10;44.80
27492;DHT22;14927;51.210;6.838;2023-06-10T01:57:04;25.00;44.80
27492;DHT22;14927;51.210;6.838;2023-06-10T01:59:50;25.00;44.90
27492;DHT22;14927;51.210;6.838;2023-06-10T02:02:34;24.90;45.00
27492;DHT22;14927;51.210;6.838;2023-06-10T02:05:19;24.90;45.10
27492;DHT22;14927;51.210;6.838;2023-06-10T02:08:04;24.90;45.30
27492;DHT22;14927;51.210;6.838;2023-06-10T02:10:49;24.80;45.40
27492;DHT22;14927;51.210;6.838;2023-06-10T02:13:33;24.80;45.50
27492;DHT22;14927;51.210;6.838;2023-06-10T02:16:18;24.70;45.50
27492;DHT22;14927;51.210;6.838;2023-06-10T02:19:05;24.70;45.70
27492;DHT22;14927;51.210;6.838;2023-06-10T02:21:51;24.70;45.60
27492;DHT22;14927;51.210;6.838;2023-06-10T02:24:36;24.60;45.70
27492;DHT22;14927;51.210;6.838;2023-06-10T02:27:22;24.60;45.70
27492;DHT22;14927;51.210;6.838;2023-06-10T02:30:07;24.60;45.90
27492;DHT22;14927;51.210;6.838;2023-06-10T02:32:54;24.60;45.90
27492;DHT22;14927;51.210;6.838;2023-06-10T02:35:39;24.60;45.90
27492;DHT22;14927;51.210;6.838;2023-06-10T02:38:24;24.50;45.90
27492;DHT22;14927;51.210;6.838;2023-06-10T02:41:08;24.50;46.00
27492;DHT22;14927;51.210;6.838;2023-06-10T02:43:53;24.40;45.90
27492;DHT22;14927;51.210;6.838;2023-06-10T02:46:38;24.40;45.90
27492;DHT22;14927;51.210;6.838;2023-06-10T02:49:23;24.40;45.90
27492;DHT22;14927;51.210;6.838;2023-06-10T02:52:07;24.40;45.90
27492;DHT22;14927;51.210;6.838;2023-06-10T02:54:52;24.40;46.00
27492;DHT22;14927;51.210;6.838;2023-06-10T02:57:36;24.40;46.10
27492;DHT22;14927;51.210;6.838;2023-06-10T03:00:21;24.30;46.10
27492;DHT22;14927;51.210;6.838;2023-06-10T03:03:06;24.30;46.20
27492;DHT22;14927;51.210;6.838;2023-06-10T03:05:51;24.30;46.30
27492;DHT22;14927;51.210;6.838;2023-06-10T03:08:36;24.20;46.30
27492;DHT22;14927;51.210;6.838;2023-06-10T03:11:22;24.20;46.30
27492;DHT22;14927;51.210;6.838;2023-06-10T03:14:08;24.20;46.30
27492;DHT22;14927;51.210;6.838;2023-06-10T03:16:52;24.20;46.50
27492;DHT22;14927;51.210;6.838;2023-06-10T03:19:37;24.10;46.40
27492;DHT22;14927;51.210;6.838;2023-06-10T03:22:23;24.10;46.50
27492;DHT22;14927;51.210;6.838;2023-06-10T03:25:08;24.10;46.60
27492;DHT22;14927;51.210;6.838;2023-06-10T03:27:57;24.10;46.70
27492;DHT22;14927;51.210;6.838;2023-06-10T03:30:43;24.10;46.60
27492;DHT22;14927;51.210;6.838;2023-06-10T03:33:28;24.00;46.60
27492;DHT22;14927;51.210;6.838;2023-06-10T03:36:12;24.00;46.70
27492;DHT22;14927;51.210;6.838;2023-06-10T03:38:57;24.00;46.70
27492;DHT22;14927;51.210;6.838;2023-06-10T03:41:42;24.00;47.00
27492;DHT22;14927;51.210;6.838;2023-06-10T03:44:27;23.90;47.10
27492;DHT22;14927;51.210;6.838;2023-06-10T03:47:12;23.90;47.20
27492;DHT22;14927;51.210;6.838;2023-06-10T03:49:57;23.90;47.10
27492;DHT22;14927;51.210;6.838;2023-06-10T03:52:41;23.90;47.20
27492;DHT22;14927;51.210;6.838;2023-06-10T03:55:26;23.80;47.10
27492;DHT22;14927;51.210;6.838;2023-06-10T03:58:11;23.90;47.30
27492;DHT22;14927;51.210;6.838;2023-06-10T04:00:59;23.80;47.40
27492;DHT22;14927;51.210;6.838;2023-06-10T04:03:44;23.70;47.40
27492;DHT22;14927;51.210;6.838;2023-06-10T04:06:28;23.70;47.60
27492;DHT22;14927;51.210;6.838;2023-06-10T04:09:13;23.70;47.70
27492;DHT22;14927;51.210;6.838;2023-06-10T04:11:57;23.70;47.90
27492;DHT22;14927;51.210;6.838;2023-06-10T04:14:42;23.70;48.10
27492;DHT22;14927;51.210;6.838;2023-06-10T04:17:27;23.70;48.20
27492;DHT22;14927;51.210;6.838;2023-06-10T04:20:12;23.70;48.40
27492;DHT22;14927;51.210;6.838;2023-06-10T04:22:56;23.70;48.50
27492;DHT22;14927;51.210;6.838;2023-06-10T04:25:41;23.60;48.60
27492;DHT22;14927;51.210;6.838;2023-06-10T04:28:26;23.70;48.80
27492;DHT22;14927;51.210;6.838;2023-06-10T04:31:11;23.60;48.80
27492;DHT22;14927;51.210;6.838;2023-06-10T04:33:55;23.60;48.90
27492;DHT22;14927;51.210;6.838;2023-06-10T04:36:40;23.60;49.00
27492;DHT22;14927;51.210;6.838;2023-06-10T04:39:25;23.60;49.20
27492;DHT22;14927;51.210;6.838;2023-06-10T04:42:10;23.60;49.20
27492;DHT22;14927;51.210;6.838;2023-06-10T04:44:54;23.60;49.20
27492;DHT22;14927;51.210;6.838;2023-06-10T04:47:40;23.70;49.30
27492;DHT22;14927;51.210;6.838;2023-06-10T04:50:24;23.60;49.10
27492;DHT22;14927;51.210;6.838;2023-06-10T04:53:10;23.60;49.40
27492;DHT22;14927;51.210;6.838;2023-06-10T04:55:54;23.60;49.40
27492;DHT22;14927;51.210;6.838;2023-06-10T04:58:41;23.70;49.40
27492;DHT22;14927;51.210;6.838;2023-06-10T05:01:29;23.70;49.60
27492;DHT22;14927;51.210;6.838;2023-06-10T05:04:18;23.70;49.70
27492;DHT22;14927;51.210;6.838;2023-06-10T05:07:03;23.70;49.90
27492;DHT22;14927;51.210;6.838;2023-06-10T05:09:48;23.70;50.00
27492;DHT22;14927;51.210;6.838;2023-06-10T05:12:34;23.70;50.30
27492;DHT22;14927;51.210;6.838;2023-06-10T05:15:18;23.70;50.30
27492;DHT22;14927;51.210;6.838;2023-06-10T05:18:06;23.80;50.40
27492;DHT22;14927;51.210;6.838;2023-06-10T05:20:51;23.90;50.90
27492;DHT22;14927;51.210;6.838;2023-06-10T05:23:38;23.80;50.50
27492;DHT22;14927;51.210;6.838;2023-06-10T05:26:26;23.90;50.60
27492;DHT22;14927;51.210;6.838;2023-06-10T05:29:11;23.90;50.50
27492;DHT22;14927;51.210;6.838;2023-06-10T05:31:56;24.00;50.60
27492;DHT22;14927;51.210;6.838;2023-06-10T05:34:41;24.20;50.50
27492;DHT22;14927;51.210;6.838;2023-06-10T05:37:26;24.00;50.10
27492;DHT22;14927;51.210;6.838;2023-06-10T05:40:12;24.10;50.00
27492;DHT22;14927;51.210;6.838;2023-06-10T05:42:56;24.10;49.80
27492;DHT22;14927;51.210;6.838;2023-06-10T05:45:41;24.20;49.70
27492;DHT22;14927;51.210;6.838;2023-06-10T05:48:26;24.20;49.40
27492;DHT22;14927;51.210;6.838;2023-06-10T05:51:10;24.20;49.00
27492;DHT22;14927;51.210;6.838;2023-06-10T05:53:55;24.30;48.80
27492;DHT22;14927;51.210;6.838;2023-06-10T05:56:40;24.40;48.90
27492;DHT22;14927;51.210;6.838;2023-06-10T05:59:25;24.40;48.70
27492;DHT22;14927;51.210;6.838;2023-06-10T06:02:09;24.40;48.40
27492;DHT22;14927;51.210;6.838;2023-06-10T06:04:54;24.50;48.30
27492;DHT22;14927;51.210;6.838;2023-06-10T06:07:39;24.60;48.00
27492;DHT22;14927;51.210;6.838;2023-06-10T06:10:24;24.60;47.80
27492;DHT22;14927;51.210;6.838;2023-06-10T06:13:09;24.70;47.80
27492;DHT22;14927;51.210;6.838;2023-06-10T06:15:53;24.70;47.40
27492;DHT22;14927;51.210;6.838;2023-06-10T06:18:38;24.80;47.10
27492;DHT22;14927;51.210;6.838;2023-06-10T06:21:23;24.80;47.50
27492;DHT22;14927;51.210;6.838;2023-06-10T06:24:07;24.90;46.80
27492;DHT22;14927;51.210;6.838;2023-06-10T06:26:52;24.90;46.80
27492;DHT22;14927;51.210;6.838;2023-06-10T06:29:40;24.80;47.00
27492;DHT22;14927;51.210;6.838;2023-06-10T06:32:28;25.10;46.50
27492;DHT22;14927;51.210;6.838;2023-06-10T06:35:16;25.30;46.50
27492;DHT22;14927;51.210;6.838;2023-06-10T06:38:09;25.40;46.30
27492;DHT22;14927;51.210;6.838;2023-06-10T06:40:57;25.30;45.90
27492;DHT22;14927;51.210;6.838;2023-06-10T06:43:49;25.40;45.70
27492;DHT22;14927;51.210;6.838;2023-06-10T06:46:37;25.40;45.80
27492;DHT22;14927;51.210;6.838;2023-06-10T06:49:31;25.50;45.40
27492;DHT22;14927;51.210;6.838;2023-06-10T06:52:20;25.50;45.20
27492;DHT22;14927;51.210;6.838;2023-06-10T06:55:06;25.60;45.10
27492;DHT22;14927;51.210;6.838;2023-06-10T06:57:51;25.70;44.70
27492;DHT22;14927;51.210;6.838;2023-06-10T07:00:39;25.80;44.80
27492;DHT22;14927;51.210;6.838;2023-06-10T07:03:25;25.90;44.70
27492;DHT22;14927;51.210;6.838;2023-06-10T07:06:13;25.90;44.50
27492;DHT22;14927;51.210;6.838;2023-06-10T07:08:58;26.00;44.50
27492;DHT22;14927;51.210;6.838;2023-06-10T07:11:48;26.00;44.50
27492;DHT22;14927;51.210;6.838;2023-06-10T07:14:38;26.10;44.30
27492;DHT22;14927;51.210;6.838;2023-06-10T07:17:29;25.90;44.30
27492;DHT22;14927;51.210;6.838;2023-06-10T07:20:15;26.30;44.40
27492;DHT22;14927;51.210;6.838;2023-06-10T07:23:01;26.30;44.10
27492;DHT22;14927;51.210;6.838;2023-06-10T07:25:46;26.30;43.90
27492;DHT22;14927;51.210;6.838;2023-06-10T07:28:33;26.40;43.50
27492;DHT22;14927;51.210;6.838;2023-06-10T07:31:26;26.50;43.00
27492;DHT22;14927;51.210;6.838;2023-06-10T07:34:11;26.50;42.60
27492;DHT22;14927;51.210;6.838;2023-06-10T07:36:58;26.60;42.50
27492;DHT22;14927;51.210;6.838;2023-06-10T07:39:43;26.60;42.30
27492;DHT22;14927;51.210;6.838;2023-06-10T07:42:40;26.70;42.40
27492;DHT22;14927;51.210;6.838;2023-06-10T07:45:28;26.70;42.40
27492;DHT22;14927;51.210;6.838;2023-06-10T07:48:16;26.90;42.50
27492;DHT22;14927;51.210;6.838;2023-06-10T07:51:03;26.90;42.70
27492;DHT22;14927;51.210;6.838;2023-06-10T07:53:48;27.00;42.60
27492;DHT22;14927;51.210;6.838;2023-06-10T07:56:36;27.00;42.20
27492;DHT22;14927;51.210;6.838;2023-06-10T07:59:23;27.10;42.10
27492;DHT22;14927;51.210;6.838;2023-06-10T08:02:11;27.40;42.10
27492;DHT22;14927;51.210;6.838;2023-06-10T08:04:57;27.20;42.00
27492;DHT22;14927;51.210;6.838;2023-06-10T08:07:44;27.30;41.60
27492;DHT22;14927;51.210;6.838;2023-06-10T08:10:31;27.30;41.40
27492;DHT22;14927;51.210;6.838;2023-06-10T08:13:16;27.40;41.40
27492;DHT22;14927;51.210;6.838;2023-06-10T08:16:01;27.40;41.60
27492;DHT22;14927;51.210;6.838;2023-06-10T08:18:45;27.50;41.60
27492;DHT22;14927;51.210;6.838;2023-06-10T08:21:30;27.60;41.30
27492;DHT22;14927;51.210;6.838;2023-06-10T08:24:18;27.70;41.30
27492;DHT22;14927;51.210;6.838;2023-06-10T08:27:04;27.80;41.30
27492;DHT22;14927;51.210;6.838;2023-06-10T08:29:54;27.80;41.10
27492;DHT22;14927;51.210;6.838;2023-06-10T08:32:44;27.90;41.20
27492;DHT22;14927;51.210;6.838;2023-06-10T08:35:33;28.00;41.10
27492;DHT22;14927;51.210;6.838;2023-06-10T08:38:24;28.10;40.80
27492;DHT22;14927;51.210;6.838;2023-06-10T08:41:14;28.20;40.80
27492;DHT22;14927;51.210;6.838;2023-06-10T08:44:10;28.30;40.60
27492;DHT22;14927;51.210;6.838;2023-06-10T08:47:00;28.40;40.60
27492;DHT22;14927;51.210;6.838;2023-06-10T08:49:48;28.40;40.60
27492;DHT22;14927;51.210;6.838;2023-06-10T08:52:50;28.50;40.60
27492;DHT22;14927;51.210;6.838;2023-06-10T08:55:49;28.50;40.60
27492;DHT22;14927;51.210;6.838;2023-06-10T08:58:36;28.80;40.10
27492;DHT22;14927;51.210;6.838;2023-06-10T09:01:29;28.60;40.20
27492;DHT22;14927;51.210;6.838;2023-06-10T09:04:18;28.80;40.20
27492;DHT22;14927;51.210;6.838;2023-06-10T09:07:06;28.90;40.50
27492;DHT22;14927;51.210;6.838;2023-06-10T09:09:55;29.00;40.30
27492;DHT22;14927;51.210;6.838;2023-06-10T09:12:44;29.10;40.20
27492;DHT22;14927;51.210;6.838;2023-06-10T09:15:31;29.10;40.20
27492;DHT22;14927;51.210;6.838;2023-06-10T09:18:32;29.20;39.80
27492;DHT22;14927;51.210;6.838;2023-06-10T09:21:26;29.20;39.50
27492;DHT22;14927;51.210;6.838;2023-06-10T09:24:11;29.40;39.80
27492;DHT22;14927;51.210;6.838;2023-06-10T09:27:10;29.40;39.60
27492;DHT22;14927;51.210;6.838;2023-06-10T09:29:55;29.70;39.30
27492;DHT22;14927;51.210;6.838;2023-06-10T09:32:43;29.50;39.50
27492;DHT22;14927;51.210;6.838;2023-06-10T09:35:29;29.60;39.40
27492;DHT22;14927;51.210;6.838;2023-06-10T09:38:19;29.70;38.80
27492;DHT22;14927;51.210;6.838;2023-06-10T09:41:06;29.80;38.00
27492;DHT22;14927;51.210;6.838;2023-06-10T09:44:02;29.90;38.00
27492;DHT22;14927;51.210;6.838;2023-06-10T09:47:00;29.90;37.90
27492;DHT22;14927;51.210;6.838;2023-06-10T09:49:49;30.00;37.70
27492;DHT22;14927;51.210;6.838;2023-06-10T09:52:38;30.10;38.10
27492;DHT22;14927;51.210;6.838;2023-06-10T09:55:26;30.10;38.60
27492;DHT22;14927;51.210;6.838;2023-06-10T09:58:12;30.20;38.80
27492;DHT22;14927;51.210;6.838;2023-06-10T10:00:57;30.30;38.50
27492;DHT22;14927;51.210;6.838;2023-06-10T10:03:49;30.30;38.20
27492;DHT22;14927;51.210;6.838;2023-06-10T10:06:36;30.50;38.10
27492;DHT22;14927;51.210;6.838;2023-06-10T10:09:24;30.50;37.70
27492;DHT22;14927;51.210;6.838;2023-06-10T10:12:12;30.60;37.40
27492;DHT22;14927;51.210;6.838;2023-06-10T10:14:58;30.70;37.10
27492;DHT22;14927;51.210;6.838;2023-06-10T10:17:53;30.80;36.70
27492;DHT22;14927;51.210;6.838;2023-06-10T10:20:50;30.90;36.40
27492;DHT22;14927;51.210;6.838;2023-06-10T10:23:50;30.90;36.20
27492;DHT22;14927;51.210;6.838;2023-06-10T10:26:50;30.90;36.20
27492;DHT22;14927;51.210;6.838;2023-06-10T10:29:45;30.90;36.00
27492;DHT22;14927;51.210;6.838;2023-06-10T10:32:51;30.90;35.40
27492;DHT22;14927;51.210;6.838;2023-06-10T10:35:39;30.90;35.10
27492;DHT22;14927;51.210;6.838;2023-06-10T10:38:25;31.20;35.70
27492;DHT22;14927;51.210;6.838;2023-06-10T10:41:16;31.00;35.40
27492;DHT22;14927;51.210;6.838;2023-06-10T10:44:06;31.20;35.20
27492;DHT22;14927;51.210;6.838;2023-06-10T10:46:54;31.30;35.10
27492;DHT22;14927;51.210;6.838;2023-06-10T10:49:43;31.30;34.90
27492;DHT22;14927;51.210;6.838;2023-06-10T10:53:01;31.30;34.60
27492;DHT22;14927;51.210;6.838;2023-06-10T10:56:05;31.40;34.30
27492;DHT22;14927;51.210;6.838;2023-06-10T10:59:11;31.40;33.70
27492;DHT22;14927;51.210;6.838;2023-06-10T11:01:58;31.40;33.90
27492;DHT22;14927;51.210;6.838;2023-06-10T11:04:52;31.40;34.10
27492;DHT22;14927;51.210;6.838;2023-06-10T11:07:54;31.40;33.70
27492;DHT22;14927;51.210;6.838;2023-06-10T11:10:52;31.40;33.30
27492;DHT22;14927;51.210;6.838;2023-06-10T11:16:56;31.50;34.10
27492;DHT22;14927;51.210;6.838;2023-06-10T11:19:48;31.50;33.40
27492;DHT22;14927;51.210;6.838;2023-06-10T11:22:33;31.60;33.90
27492;DHT22;14927;51.210;6.838;2023-06-10T11:25:38;31.70;33.20
27492;DHT22;14927;51.210;6.838;2023-06-10T11:28:28;31.80;32.60
27492;DHT22;14927;51.210;6.838;2023-06-10T11:31:29;32.00;32.60
27492;DHT22;14927;51.210;6.838;2023-06-10T11:34:22;31.90;32.30
27492;DHT22;14927;51.210;6.838;2023-06-10T11:37:09;31.90;32.30
27492;DHT22;14927;51.210;6.838;2023-06-10T11:39:55;32.00;32.70
27492;DHT22;14927;51.210;6.838;2023-06-10T11:42:42;32.00;32.40
27492;DHT22;14927;51.210;6.838;2023-06-10T11:45:28;32.10;31.90
27492;DHT22;14927;51.210;6.838;2023-06-10T11:48:13;32.30;32.50
27492;DHT22;14927;51.210;6.838;2023-06-10T11:51:00;32.30;31.80
27492;DHT22;14927;51.210;6.838;2023-06-10T11:53:50;32.40;31.50
27492;DHT22;14927;51.210;6.838;2023-06-10T11:56:35;32.40;31.30
27492;DHT22;14927;51.210;6.838;2023-06-10T11:59:27;32.50;30.90
27492;DHT22;14927;51.210;6.838;2023-06-10T12:02:18;32.50;30.50
27492;DHT22;14927;51.210;6.838;2023-06-10T12:05:14;32.60;30.50
27492;DHT22;14927;51.210;6.838;2023-06-10T12:08:11;32.60;30.80
27492;DHT22;14927;51.210;6.838;2023-06-10T12:10:57;32.60;31.00
27492;DHT22;14927;51.210;6.838;2023-06-10T12:13:48;32.60;30.90
27492;DHT22;14927;51.210;6.838;2023-06-10T12:16:41;32.60;30.20
27492;DHT22;14927;51.210;6.838;2023-06-10T12:19:38;32.60;30.40
27492;DHT22;14927;51.210;6.838;2023-06-10T12:22:24;32.50;30.20
27492;DHT22;14927;51.210;6.838;2023-06-10T12:25:12;32.60;30.80
27492;DHT22;14927;51.210;6.838;2023-06-10T12:28:00;32.30;30.70
27492;DHT22;14927;51.210;6.838;2023-06-10T12:30:45;32.50;31.10
27492;DHT22;14927;51.210;6.838;2023-06-10T12:33:33;32.40;31.40
27492;DHT22;14927;51.210;6.838;2023-06-10T12:36:21;32.30;31.20
27492;DHT22;14927;51.210;6.838;2023-06-10T12:39:08;32.50;31.60
27492;DHT22;14927;51.210;6.838;2023-06-10T12:41:53;32.40;31.30
27492;DHT22;14927;51.210;6.838;2023-06-10T12:44:40;32.40;31.70
27492;DHT22;14927;51.210;6.838;2023-06-10T12:47:35;32.40;31.50
27492;DHT22;14927;51.210;6.838;2023-06-10T12:50:24;32.40;31.00
27492;DHT22;14927;51.210;6.838;2023-06-10T12:53:09;32.50;31.50
27492;DHT22;14927;51.210;6.838;2023-06-10T12:55:58;32.60;31.20
27492;DHT22;14927;51.210;6.838;2023-06-10T12:58:43;32.70;31.10
27492;DHT22;14927;51.210;6.838;2023-06-10T13:01:29;32.90;30.70
27492;DHT22;14927;51.210;6.838;2023-06-10T13:04:20;32.90;30.10
27492;DHT22;14927;51.210;6.838;2023-06-10T13:07:08;33.30;29.80
27492;DHT22;14927;51.210;6.838;2023-06-10T13:09:53;33.50;29.50
27492;DHT22;14927;51.210;6.838;2023-06-10T13:12:38;33.70;29.00
27492;DHT22;14927;51.210;6.838;2023-06-10T13:15:29;33.90;28.80
27492;DHT22;14927;51.210;6.838;2023-06-10T13:18:14;34.10;28.50
27492;DHT22;14927;51.210;6.838;2023-06-10T13:21:08;34.30;28.70
27492;DHT22;14927;51.210;6.838;2023-06-10T13:23:56;34.40;28.80
27492;DHT22;14927;51.210;6.838;2023-06-10T13:26:43;34.50;28.80
27492;DHT22;14927;51.210;6.838;2023-06-10T13:29:31;34.60;28.60
27492;DHT22;14927;51.210;6.838;2023-06-10T13:32:21;34.60;28.50
27492;DHT22;14927;51.210;6.838;2023-06-10T13:35:06;34.70;29.40
27492;DHT22;14927;51.210;6.838;2023-06-10T13:37:51;34.70;28.40
27492;DHT22;14927;51.210;6.838;2023-06-10T13:40:39;34.60;28.50
27492;DHT22;14927;51.210;6.838;2023-06-10T13:43:24;34.70;28.80
27492;DHT22;14927;51.210;6.838;2023-06-10T13:46:10;34.60;28.70
27492;DHT22;14927;51.210;6.838;2023-06-10T13:48:58;34.60;28.80
27492;DHT22;14927;51.210;6.838;2023-06-10T13:51:49;34.50;28.20
27492;DHT22;14927;51.210;6.838;2023-06-10T13:54:34;34.50;28.30
27492;DHT22;14927;51.210;6.838;2023-06-10T13:57:22;34.40;28.20
27492;DHT22;14927;51.210;6.838;2023-06-10T14:00:08;34.40;28.60
27492;DHT22;14927;51.210;6.838;2023-06-10T14:02:59;34.40;28.40
27492;DHT22;14927;51.210;6.838;2023-06-10T14:05:44;34.30;28.50
27492;DHT22;14927;51.210;6.838;2023-06-10T14:08:28;34.30;28.40
27492;DHT22;14927;51.210;6.838;2023-06-10T14:11:16;34.30;28.50
27492;DHT22;14927;51.210;6.838;2023-06-10T14:14:01;34.30;28.80
27492;DHT22;14927;51.210;6.838;2023-06-10T14:16:52;34.30;29.10
27492;DHT22;14927;51.210;6.838;2023-06-10T14:19:39;34.30;29.50
27492;DHT22;14927;51.210;6.838;2023-06-10T14:22:25;34.20;29.70
27492;DHT22;14927;51.210;6.838;2023-06-10T14:25:13;34.40;29.90
27492;DHT22;14927;51.210;6.838;2023-06-10T14:27:58;34.20;29.20
27492;DHT22;14927;51.210;6.838;2023-06-10T14:30:46;34.10;29.20
27492;DHT22;14927;51.210;6.838;2023-06-10T14:33:34;33.90;28.90
27492;DHT22;14927;51.210;6.838;2023-06-10T14:36:22;34.00;28.80
27492;DHT22;14927;51.210;6.838;2023-06-10T14:39:12;34.10;28.80
27492;DHT22;14927;51.210;6.838;2023-06-10T14:42:00;34.10;28.90
27492;DHT22;14927;51.210;6.838;2023-06-10T14:44:48;34.00;29.20
27492;DHT22;14927;51.210;6.838;2023-06-10T14:47:37;34.00;29.70
27492;DHT22;14927;51.210;6.838;2023-06-10T14:50:25;34.00;29.80
27492;DHT22;14927;51.210;6.838;2023-06-10T14:53:13;34.00;29.60
27492;DHT22;14927;51.210;6.838;2023-06-10T14:55:58;33.90;29.20
27492;DHT22;14927;51.210;6.838;2023-06-10T14:58:46;34.00;29.50
27492;DHT22;14927;51.210;6.838;2023-06-10T15:01:34;34.00;29.50
27492;DHT22;14927;51.210;6.838;2023-06-10T15:04:22;34.00;29.70
27492;DHT22;14927;51.210;6.838;2023-06-10T15:07:12;34.10;29.00
27492;DHT22;14927;51.210;6.838;2023-06-10T15:10:00;34.00;28.90
27492;DHT22;14927;51.210;6.838;2023-06-10T15:12:45;34.00;29.50
27492;DHT22;14927;51.210;6.838;2023-06-10T15:15:30;34.00;29.10
27492;DHT22;14927;51.210;6.838;2023-06-10T15:18:21;34.10;28.80
27492;DHT22;14927;51.210;6.838;2023-06-10T15:21:07;34.10;28.50
27492;DHT22;14927;51.210;6.838;2023-06-10T15:23:52;34.10;28.50
27492;DHT22;14927;51.210;6.838;2023-06-10T15:26:40;34.10;28.40
27492;DHT22;14927;51.210;6.838;2023-06-10T15:29:27;34.10;28.40
27492;DHT22;14927;51.210;6.838;2023-06-10T15:32:12;34.20;28.30
27492;DHT22;14927;51.210;6.838;2023-06-10T15:34:57;34.20;28.10
27492;DHT22;14927;51.210;6.838;2023-06-10T15:37:46;34.20;28.30
27492;DHT22;14927;51.210;6.838;2023-06-10T15:40:32;34.20;28.20
27492;DHT22;14927;51.210;6.838;2023-06-10T15:43:17;34.20;28.20
27492;DHT22;14927;51.210;6.838;2023-06-10T15:46:04;34.20;27.90
27492;DHT22;14927;51.210;6.838;2023-06-10T15:48:49;34.30;27.80
27492;DHT22;14927;51.210;6.838;2023-06-10T15:51:37;34.10;27.60
27492;DHT22;14927;51.210;6.838;2023-06-10T15:54:25;34.40;27.60
27492;DHT22;14927;51.210;6.838;2023-06-10T15:57:13;34.30;27.20
27492;DHT22;14927;51.210;6.838;2023-06-10T15:59:58;34.20;27.20
27492;DHT22;14927;51.210;6.838;2023-06-10T16:02:49;34.40;27.40
27492;DHT22;14927;51.210;6.838;2023-06-10T16:05:36;34.30;27.30
27492;DHT22;14927;51.210;6.838;2023-06-10T16:08:21;34.20;27.40
27492;DHT22;14927;51.210;6.838;2023-06-10T16:11:08;34.40;27.80
27492;DHT22;14927;51.210;6.838;2023-06-10T16:13:54;34.30;27.30
27492;DHT22;14927;51.210;6.838;2023-06-10T16:16:39;34.40;27.20
27492;DHT22;14927;51.210;6.838;2023-06-10T16:19:25;34.30;27.30
27492;DHT22;14927;51.210;6.838;2023-06-10T16:22:13;34.30;27.40
27492;DHT22;14927;51.210;6.838;2023-06-10T16:24:58;34.30;27.30
27492;DHT22;14927;51.210;6.838;2023-06-10T16:27:43;34.30;27.20
27492;DHT22;14927;51.210;6.838;2023-06-10T16:30:28;34.40;27.50
27492;DHT22;14927;51.210;6.838;2023-06-10T16:33:14;34.40;27.50
27492;DHT22;14927;51.210;6.838;2023-06-10T16:36:01;34.60;27.90
27492;DHT22;14927;51.210;6.838;2023-06-10T16:38:52;34.60;27.50
27492;DHT22;14927;51.210;6.838;2023-06-10T16:41:49;34.80;26.90
27492;DHT22;14927;51.210;6.838;2023-06-10T16:44:37;34.90;25.60
27492;DHT22;14927;51.210;6.838;2023-06-10T16:47:25;35.00;25.50
27492;DHT22;14927;51.210;6.838;2023-06-10T16:50:14;35.20;25.40
27492;DHT22;14927;51.210;6.838;2023-06-10T16:53:01;35.30;25.10
27492;DHT22;14927;51.210;6.838;2023-06-10T16:55:47;35.30;24.60
27492;DHT22;14927;51.210;6.838;2023-06-10T16:58:32;35.40;24.20
27492;DHT22;14927;51.210;6.838;2023-06-10T17:01:25;35.60;24.20
27492;DHT22;14927;51.210;6.838;2023-06-10T17:04:10;35.60;25.00
27492;DHT22;14927;51.210;6.838;2023-06-10T17:06:58;35.70;25.40
27492;DHT22;14927;51.210;6.838;2023-06-10T17:09:47;35.80;25.80
27492;DHT22;14927;51.210;6.838;2023-06-10T17:12:35;35.90;25.80
27492;DHT22;14927;51.210;6.838;2023-06-10T17:15:24;36.00;25.60
27492;DHT22;14927;51.210;6.838;2023-06-10T17:18:09;36.20;25.50
27492;DHT22;14927;51.210;6.838;2023-06-10T17:20:54;36.30;25.60
27492;DHT22;14927;51.210;6.838;2023-06-10T17:23:40;36.50;25.60
27492;DHT22;14927;51.210;6.838;2023-06-10T17:26:25;36.40;25.50
27492;DHT22;14927;51.210;6.838;2023-06-10T17:29:13;36.80;25.60
27492;DHT22;14927;51.210;6.838;2023-06-10T17:31:58;36.80;25.30
27492;DHT22;14927;51.210;6.838;2023-06-10T17:34:43;37.10;25.20
27492;DHT22;14927;51.210;6.838;2023-06-10T17:37:28;37.20;24.90
27492;DHT22;14927;51.210;6.838;2023-06-10T17:40:25;37.30;24.80
27492;DHT22;14927;51.210;6.838;2023-06-10T17:43:14;37.40;24.90